Time;durP1;ratioP1;P1;durP2;ratioP2;P2;SDS_P1;SDS_P2;PMS_P1;PMS_P2;Temp;Humidity;BMP_temperature;BMP_pressure;BME280_temperature;BME280_humidity;BME280_pressure;Samples;Min_cycle;Max_cycle;Signal;HPM_P1;HPM_P2
2022/03/18 00:00:06;;;;;;;;;;;;;;;;;;350068;28;897;-79
2022/03/18 00:00:20;;;;;;;;;;;;;;;;;;350315;28;1651;-79
2022/03/18 00:00:33;;;;;;;;;;;;;;;;;;349927;28;936;-79
2022/03/18 00:00:43;;;;;;;;;;;;;;;;;;351269;28;1721;-79
2022/03/18 00:00:54;;;;;;;;;;;;;;;;;;351423;28;853;-79
2022/03/18 00:01:04;;;;;;;;;;;;;;;;;;351422;28;941;-79
2022/03/18 00:01:14;;;;;;;;;;;;;;;;;;351417;28;802;-79
2022/03/18 00:01:24;;;;;;;;;;;;;;;;;;351321;28;1105;-79
2022/03/18 00:01:35;;;;;;;;;;;;;;;;;;351476;28;936;-79
2022/03/18 00:01:45;;;;;;;;;;;;;;;;;;351489;28;904;-79
2022/03/18 00:01:56;;;;;;;;;;;;;;;;;;351445;28;932;-79
2022/03/18 00:02:06;;;;;;;;;;;;;;;;;;351472;28;860;-79
2022/03/18 00:02:17;;;;;;;;;;;;;;;;;;351418;28;933;-79
2022/03/18 00:02:27;;;;;;;;;;;;;;;;;;351397;28;944;-79
2022/03/18 00:02:39;;;;;;;;;;;;;;;;;;350785;28;1572;-79
2022/03/18 00:02:49;;;;;;;;;;;;;;;;;;350021;28;1663;-79
2022/03/18 00:02:59;;;;;;;;;;;;;;;;;;350022;28;972;-79
2022/03/18 00:03:10;;;;;;;;;;;;;;;;;;350001;28;786;-79
2022/03/18 00:03:20;;;;;;;;;;;;;;;;;;350074;28;782;-79
2022/03/18 00:03:30;;;;;;;;;;;;;;;;;;350022;28;1042;-79
2022/03/18 00:03:41;;;;;;;;;;;;;;;;;;350043;28;901;-78
2022/03/18 00:03:52;;;;;;;;;;;;;;;;;;349993;28;1070;-79
2022/03/18 00:04:03;;;;;;;;;;;;;;;;;;350078;28;933;-78
2022/03/18 00:04:13;;;;;;;;;;;;;;;;;;349981;28;947;-79
2022/03/18 00:04:23;;;;;;;;;;;;;;;;;;349997;28;1043;-79
2022/03/18 00:04:33;;;;;;;;;;;;;;;;;;349943;28;1698;-79
2022/03/18 00:04:43;;;;;;;;;;;;;;;;;;349940;28;964;-79
2022/03/18 00:04:54;;;;;;;;;;;;;;;;;;350091;28;854;-79
2022/03/18 00:05:05;;;;;;;;;;;;;;;;;;350083;28;794;-79
2022/03/18 00:05:16;;;;;;;;;;;;;;;;;;349998;28;898;-79
2022/03/18 00:05:26;;;;;;;;;;;;;;;;;;350001;28;913;-79
2022/03/18 00:05:36;;;;;;;;;;;;;;;;;;350018;28;925;-79
2022/03/18 00:05:47;;;;;;;;;;;;;;;;;;349997;28;877;-79
2022/03/18 00:05:57;;;;;;;;;;;;;;;;;;349952;28;1971;-79
2022/03/18 00:06:08;;;;;;;;;;;;;;;;;;350033;28;976;-79
2022/03/18 00:06:18;;;;;;;;;;;;;;;;;;349914;28;1687;-79
2022/03/18 00:06:28;;;;;;;;;;;;;;;;;;349923;28;1787;-79
2022/03/18 00:06:40;;;;;;;;;;;;;;;;;;350040;28;964;-80
2022/03/18 00:06:50;;;;;;;;;;;;;;;;;;349977;28;833;-79
2022/03/18 00:07:01;;;;;;;;;;;;;;;;;;350069;28;983;-79
2022/03/18 00:07:11;;;;;;;;;;;;;;;;;;350052;28;909;-79
2022/03/18 00:07:22;;;;;;;;;;;;;;;;;;349575;28;1415;-79
2022/03/18 00:07:32;;;;;;;;;;;;;;;;;;349804;28;1730;-79
2022/03/18 00:07:44;;;;;;;;;;;;;;;;;;351409;28;794;-79
2022/03/18 00:07:55;;;;;;;;;;;;;;;;;;351409;28;932;-79
2022/03/18 00:08:05;;;;;;;;;;;;;;;;;;351441;28;963;-79
2022/03/18 00:08:15;;;;;;;;;;;;;;;;;;351447;28;916;-79
2022/03/18 00:08:25;;;;;;;;;;;;;;;;;;351401;28;976;-79
2022/03/18 00:08:36;;;;;;;;;;;;;;;;;;351374;28;873;-79
2022/03/18 00:08:46;;;;;;;;;;;;;;;;;;351479;28;857;-79
2022/03/18 00:08:57;;;;;;;;;;;;;;;;;;351326;28;948;-79
2022/03/18 00:09:07;;;;;;;;;;;;;;;;;;351459;28;1015;-79
2022/03/18 00:09:17;;;;;;;;;;;;;;;;;;351475;28;971;-79
2022/03/18 00:09:27;;;;;;;;;;;;;;;;;;351430;28;875;-79
2022/03/18 00:09:40;;;;;;;;;;;;;;;;;;350077;28;1722;-79
2022/03/18 00:09:51;;;;;;;;;;;;;;;;;;350008;28;968;-79
2022/03/18 00:10:01;;;;;;;;;;;;;;;;;;349991;28;814;-79
2022/03/18 00:10:12;;;;;;;;;;;;;;;;;;350049;28;913;-79
2022/03/18 00:10:23;;;;;;;;;;;;;;;;;;349454;28;1335;-79
2022/03/18 00:10:33;;;;;;;;;;;;;;;;;;351263;28;861;-79
2022/03/18 00:10:44;;;;;;;;;;;;;;;;;;351469;28;790;-79
2022/03/18 00:10:55;;;;;;;;;;;;;;;;;;351435;28;931;-79
2022/03/18 00:11:06;;;;;;;;;;;;;;;;;;351402;28;980;-79
2022/03/18 00:11:16;;;;;;;;;;;;;;;;;;351445;28;892;-79
2022/03/18 00:11:27;;;;;;;;;;;;;;;;;;351450;28;840;-79
2022/03/18 00:11:37;;;;;;;;;;;;;;;;;;350206;28;1651;-79
2022/03/18 00:11:48;;;;;;;;;;;;;;;;;;350002;28;1012;-79
2022/03/18 00:11:58;;;;;;;;;;;;;;;;;;350049;28;991;-79
2022/03/18 00:12:09;;;;;;;;;;;;;;;;;;349977;28;987;-80
2022/03/18 00:12:19;;;;;;;;;;;;;;;;;;350064;28;802;-79
2022/03/18 00:12:30;;;;;;;;;;;;;;;;;;350062;28;991;-79
2022/03/18 00:12:40;;;;;;;;;;;;;;;;;;349992;28;988;-79
2022/03/18 00:12:53;;;;;;;;;;;;;;;;;;350088;28;917;-79
2022/03/18 00:13:04;;;;;;;;;;;;;;;;;;349897;28;1603;-79
2022/03/18 00:13:14;;;;;;;;;;;;;;;;;;349900;28;1787;-79
2022/03/18 00:13:24;;;;;;;;;;;;;;;;;;350038;28;980;-80
2022/03/18 00:13:34;;;;;;;;;;;;;;;;;;350060;28;842;-79
2022/03/18 00:13:45;;;;;;;;;;;;;;;;;;350013;28;853;-79
2022/03/18 00:13:56;;;;;;;;;;;;;;;;;;349938;28;956;-79
2022/03/18 00:14:07;;;;;;;;;;;;;;;;;;350078;28;917;-79
2022/03/18 00:14:19;;;;;;;;;;;;;;;;;;350033;28;992;-79
2022/03/18 00:14:29;;;;;;;;;;;;;;;;;;350037;28;1042;-79
2022/03/18 00:14:40;;;;;;;;;;;;;;;;;;349926;28;1055;-79
2022/03/18 00:14:50;;;;;;;;;;;;;;;;;;350012;28;928;-80
2022/03/18 00:15:00;;;;;;;;;;;;;;;;;;349988;28;1643;-80
2022/03/18 00:15:11;;;;;;;;;;;;;;;;;;351007;28;1666;-80
2022/03/18 00:15:23;;;;;;;;;;;;;;;;;;350092;28;1780;-79
2022/03/18 00:15:33;;;;;;;;;;;;;;;;;;350015;28;873;-79
2022/03/18 00:15:44;;;;;;;;;;;;;;;;;;349990;28;865;-79
2022/03/18 00:15:56;;;;;;;;;;;;;;;;;;350044;28;892;-79
2022/03/18 00:16:07;;;;;;;;;;;;;;;;;;349945;28;979;-79
2022/03/18 00:16:17;;;;;;;;;;;;;;;;;;350011;28;862;-79
2022/03/18 00:16:27;;;;;;;;;;;;;;;;;;349930;28;1015;-79
2022/03/18 00:16:37;;;;;;;;;;;;;;;;;;350035;28;936;-79
2022/03/18 00:16:47;;;;;;;;;;;;;;;;;;349939;28;1015;-79
2022/03/18 00:16:58;;;;;;;;;;;;;;;;;;350056;28;983;-79
2022/03/18 00:17:10;;;;;;;;;;;;;;;;;;350077;28;1698;-79
2022/03/18 00:17:20;;;;;;;;;;;;;;;;;;350023;28;1126;-79
2022/03/18 00:17:30;;;;;;;;;;;;;;;;;;350493;28;1627;-79
2022/03/18 00:17:41;;;;;;;;;;;;;;;;;;352753;28;1056;-79
2022/03/18 00:17:51;;;;;;;;;;;;;;;;;;352876;28;905;-79
2022/03/18 00:18:02;;;;;;;;;;;;;;;;;;352867;28;821;-79
2022/03/18 00:18:12;;;;;;;;;;;;;;;;;;352816;28;849;-79
2022/03/18 00:18:22;;;;;;;;;;;;;;;;;;352805;28;904;-79
2022/03/18 00:18:32;;;;;;;;;;;;;;;;;;352816;28;919;-79
2022/03/18 00:18:42;;;;;;;;;;;;;;;;;;352760;28;963;-79
2022/03/18 00:18:53;;;;;;;;;;;;;;;;;;352828;28;1026;-79
2022/03/18 00:19:03;;;;;;;;;;;;;;;;;;352890;28;876;-79
2022/03/18 00:19:13;;;;;;;;;;;;;;;;;;352769;28;936;-80
2022/03/18 00:19:25;;;;;;;;;;;;;;;;;;352826;28;876;-79
2022/03/18 00:19:36;;;;;;;;;;;;;;;;;;352834;28;798;-79
2022/03/18 00:19:46;;;;;;;;;;;;;;;;;;352707;28;869;-79
2022/03/18 00:19:56;;;;;;;;;;;;;;;;;;350181;28;1677;-79
2022/03/18 00:20:07;;;;;;;;;;;;;;;;;;350029;28;933;-79
2022/03/18 00:20:18;;;;;;;;;;;;;;;;;;349965;28;909;-79
2022/03/18 00:20:29;;;;;;;;;;;;;;;;;;350026;28;885;-79
2022/03/18 00:20:39;;;;;;;;;;;;;;;;;;350313;28;1557;-79
2022/03/18 00:20:49;;;;;;;;;;;;;;;;;;350013;28;1745;-79
2022/03/18 00:21:00;;;;;;;;;;;;;;;;;;351279;28;1861;-79
2022/03/18 00:21:10;;;;;;;;;;;;;;;;;;351424;28;908;-79
2022/03/18 00:21:21;;;;;;;;;;;;;;;;;;351322;28;916;-79
2022/03/18 00:21:34;;;;;;;;;;;;;;;;;;351360;28;999;-79
2022/03/18 00:21:44;;;;;;;;;;;;;;;;;;351424;28;869;-79
2022/03/18 00:22:01;;;;;;;;;;;;;;;;;;350463;27;1714;-79
2022/03/18 00:22:12;;;;;;;;;;;;;;;;;;351398;28;1319;-79
2022/03/18 00:22:22;;;;;;;;;;;;;;;;;;351396;28;907;-79
2022/03/18 00:22:33;;;;;;;;;;;;;;;;;;351395;28;877;-79
2022/03/18 00:22:44;;;;;;;;;;;;;;;;;;351180;27;1681;-79
2022/03/18 00:22:54;;;;;;;;;;;;;;;;;;349953;28;908;-79
2022/03/18 00:23:04;;;;;;;;;;;;;;;;;;350029;28;870;-79
2022/03/18 00:23:14;;;;;;;;;;;;;;;;;;350015;28;1041;-79
2022/03/18 00:23:24;;;;;;;;;;;;;;;;;;349912;28;969;-79
2022/03/18 00:23:35;;;;;;;;;;;;;;;;;;349904;28;936;-79
2022/03/18 00:23:45;;;;;;;;;;;;;;;;;;349980;28;916;-79
2022/03/18 00:23:55;;;;;;;;;;;;;;;;;;349967;28;893;-79
2022/03/18 00:24:06;;;;;;;;;;;;;;;;;;349992;28;988;-79
2022/03/18 00:24:16;;;;;;;;;;;;;;;;;;350013;28;972;-79
2022/03/18 00:24:31;;;;;;;;;;;;;;;;;;350013;28;945;-80
2022/03/18 00:24:42;;;;;;;;;;;;;;;;;;350017;28;960;-79
2022/03/18 00:24:52;;;;;;;;;;;;;;;;;;349950;28;921;-80
2022/03/18 00:25:04;;;;;;;;;;;;;;;;;;350035;28;941;-79
2022/03/18 00:25:15;;;;;;;;;;;;;;;;;;349926;28;1032;-79
2022/03/18 00:25:25;;;;;;;;;;;;;;;;;;350026;28;940;-79
2022/03/18 00:25:35;;;;;;;;;;;;;;;;;;349904;28;987;-79
2022/03/18 00:25:46;;;;;;;;;;;;;;;;;;350047;28;810;-79
2022/03/18 00:25:56;;;;;;;;;;;;;;;;;;349839;28;1894;-79
2022/03/18 00:26:06;;;;;;;;;;;;;;;;;;350020;28;921;-80
2022/03/18 00:26:17;;;;;;;;;;;;;;;;;;349968;28;948;-79
2022/03/18 00:26:27;;;;;;;;;;;;;;;;;;349985;28;897;-79
2022/03/18 00:26:37;;;;;;;;;;;;;;;;;;349409;28;1521;-79
2022/03/18 00:26:47;;;;;;;;;;;;;;;;;;351315;28;991;-79
2022/03/18 00:26:58;;;;;;;;;;;;;;;;;;351310;28;780;-79
2022/03/18 00:27:09;;;;;;;;;;;;;;;;;;351435;28;917;-79
2022/03/18 00:27:19;;;;;;;;;;;;;;;;;;351361;28;873;-79
2022/03/18 00:27:29;;;;;;;;;;;;;;;;;;351391;28;905;-80
2022/03/18 00:27:42;;;;;;;;;;;;;;;;;;351319;28;920;-79
2022/03/18 00:27:52;;;;;;;;;;;;;;;;;;351406;28;960;-79
2022/03/18 00:28:03;;;;;;;;;;;;;;;;;;351388;28;881;-79
2022/03/18 00:28:13;;;;;;;;;;;;;;;;;;351383;28;1300;-79
2022/03/18 00:28:23;;;;;;;;;;;;;;;;;;351420;28;893;-79
2022/03/18 00:28:33;;;;;;;;;;;;;;;;;;350748;28;1647;-79
2022/03/18 00:28:44;;;;;;;;;;;;;;;;;;351037;28;1819;-79
2022/03/18 00:28:54;;;;;;;;;;;;;;;;;;349982;28;909;-79
2022/03/18 00:29:04;;;;;;;;;;;;;;;;;;350042;28;848;-79
2022/03/18 00:29:14;;;;;;;;;;;;;;;;;;349961;28;992;-79
2022/03/18 00:29:25;;;;;;;;;;;;;;;;;;349936;28;956;-79
2022/03/18 00:29:35;;;;;;;;;;;;;;;;;;350041;28;940;-79
2022/03/18 00:29:45;;;;;;;;;;;;;;;;;;349945;28;933;-79
2022/03/18 00:29:56;;;;;;;;;;;;;;;;;;349919;28;1054;-79
2022/03/18 00:30:06;;;;;;;;;;;;;;;;;;349961;28;944;-79
2022/03/18 00:30:18;;;;;;;;;;;;;;;;;;350009;28;909;-79
2022/03/18 00:30:28;;;;;;;;;;;;;;;;;;349936;28;960;-80
2022/03/18 00:30:39;;;;;;;;;;;;;;;;;;350055;28;853;-79
2022/03/18 00:30:49;;;;;;;;;;;;;;;;;;349817;28;1666;-79
2022/03/18 00:31:00;;;;;;;;;;;;;;;;;;350613;28;1826;-79
2022/03/18 00:31:11;;;;;;;;;;;;;;;;;;351407;28;944;-79
2022/03/18 00:31:21;;;;;;;;;;;;;;;;;;351430;28;932;-79
2022/03/18 00:31:31;;;;;;;;;;;;;;;;;;349837;28;1879;-78
2022/03/18 00:31:42;;;;;;;;;;;;;;;;;;349982;28;920;-79
2022/03/18 00:31:53;;;;;;;;;;;;;;;;;;349948;28;780;-79
2022/03/18 00:32:04;;;;;;;;;;;;;;;;;;349984;28;776;-79
2022/03/18 00:32:14;;;;;;;;;;;;;;;;;;349905;28;929;-79
2022/03/18 00:32:24;;;;;;;;;;;;;;;;;;350423;28;1529;-79
2022/03/18 00:32:37;;;;;;;;;;;;;;;;;;349997;28;913;-79
2022/03/18 00:32:51;;;;;;;;;;;;;;;;;;349950;28;834;-79
2022/03/18 00:33:01;;;;;;;;;;;;;;;;;;349897;28;1042;-79
2022/03/18 00:33:11;;;;;;;;;;;;;;;;;;349961;28;980;-79
2022/03/18 00:33:22;;;;;;;;;;;;;;;;;;349982;28;790;-79
2022/03/18 00:33:32;;;;;;;;;;;;;;;;;;349983;28;1078;-79
2022/03/18 00:33:42;;;;;;;;;;;;;;;;;;349926;28;1039;-80
2022/03/18 00:33:52;;;;;;;;;;;;;;;;;;349934;28;925;-79
2022/03/18 00:34:03;;;;;;;;;;;;;;;;;;350003;28;783;-79
2022/03/18 00:34:13;;;;;;;;;;;;;;;;;;349962;28;888;-79
2022/03/18 00:34:23;;;;;;;;;;;;;;;;;;350015;28;1011;-80
2022/03/18 00:34:34;;;;;;;;;;;;;;;;;;349982;28;874;-79
2022/03/18 00:34:44;;;;;;;;;;;;;;;;;;350002;28;916;-79
2022/03/18 00:34:54;;;;;;;;;;;;;;;;;;349982;28;869;-79
2022/03/18 00:35:07;;;;;;;;;;;;;;;;;;349984;28;901;-79
2022/03/18 00:35:18;;;;;;;;;;;;;;;;;;349985;28;906;-79
2022/03/18 00:35:28;;;;;;;;;;;;;;;;;;349895;28;1123;-79
2022/03/18 00:35:39;;;;;;;;;;;;;;;;;;349928;28;1089;-79
2022/03/18 00:35:49;;;;;;;;;;;;;;;;;;350019;28;809;-79
2022/03/18 00:35:59;;;;;;;;;;;;;;;;;;349872;28;972;-79
2022/03/18 00:36:09;;;;;;;;;;;;;;;;;;349989;28;1000;-80
2022/03/18 00:36:19;;;;;;;;;;;;;;;;;;350404;28;1754;-80
2022/03/18 00:36:30;;;;;;;;;;;;;;;;;;351353;28;999;-80
2022/03/18 00:36:40;;;;;;;;;;;;;;;;;;351383;28;932;-79
2022/03/18 00:36:50;;;;;;;;;;;;;;;;;;351402;28;825;-79
2022/03/18 00:37:00;;;;;;;;;;;;;;;;;;351366;28;929;-79
2022/03/18 00:37:10;;;;;;;;;;;;;;;;;;350698;28;1785;-80
2022/03/18 00:37:21;;;;;;;;;;;;;;;;;;351409;28;964;-79
2022/03/18 00:37:31;;;;;;;;;;;;;;;;;;351328;28;928;-80
2022/03/18 00:37:41;;;;;;;;;;;;;;;;;;351424;28;948;-79
2022/03/18 00:37:52;;;;;;;;;;;;;;;;;;351391;28;873;-79
2022/03/18 00:38:02;;;;;;;;;;;;;;;;;;351305;28;959;-80
2022/03/18 00:38:13;;;;;;;;;;;;;;;;;;351359;28;988;-79
2022/03/18 00:38:23;;;;;;;;;;;;;;;;;;351058;28;1662;-79
2022/03/18 00:38:34;;;;;;;;;;;;;;;;;;351408;28;972;-79
2022/03/18 00:38:44;;;;;;;;;;;;;;;;;;351409;28;907;-79
2022/03/18 00:38:54;;;;;;;;;;;;;;;;;;351349;28;988;-79
2022/03/18 00:39:05;;;;;;;;;;;;;;;;;;351404;28;1003;-79
2022/03/18 00:39:16;;;;;;;;;;;;;;;;;;351351;28;1011;-79
2022/03/18 00:39:26;;;;;;;;;;;;;;;;;;351425;28;841;-79
2022/03/18 00:39:37;;;;;;;;;;;;;;;;;;351383;28;920;-79
2022/03/18 00:39:47;;;;;;;;;;;;;;;;;;351312;28;988;-79
2022/03/18 00:39:57;;;;;;;;;;;;;;;;;;351377;28;912;-79
2022/03/18 00:40:09;;;;;;;;;;;;;;;;;;351344;28;1027;-79
2022/03/18 00:40:19;;;;;;;;;;;;;;;;;;351056;28;1662;-79
2022/03/18 00:40:29;;;;;;;;;;;;;;;;;;351430;28;849;-79
2022/03/18 00:40:40;;;;;;;;;;;;;;;;;;351355;28;995;-79
2022/03/18 00:40:50;;;;;;;;;;;;;;;;;;351359;28;1576;-79
2022/03/18 00:41:01;;;;;;;;;;;;;;;;;;351370;28;814;-79
2022/03/18 00:41:11;;;;;;;;;;;;;;;;;;351411;28;810;-79
2022/03/18 00:41:21;;;;;;;;;;;;;;;;;;351402;28;953;-79
2022/03/18 00:41:31;;;;;;;;;;;;;;;;;;351297;28;835;-79
2022/03/18 00:41:42;;;;;;;;;;;;;;;;;;351365;28;937;-79
2022/03/18 00:41:52;;;;;;;;;;;;;;;;;;351385;28;925;-79
2022/03/18 00:42:02;;;;;;;;;;;;;;;;;;351350;28;1067;-79
2022/03/18 00:42:12;;;;;;;;;;;;;;;;;;351293;28;996;-79
2022/03/18 00:42:23;;;;;;;;;;;;;;;;;;349942;28;1808;-80
2022/03/18 00:42:33;;;;;;;;;;;;;;;;;;349990;28;932;-80
2022/03/18 00:42:43;;;;;;;;;;;;;;;;;;350017;28;893;-79
2022/03/18 00:42:56;;;;;;;;;;;;;;;;;;349973;28;976;-79
2022/03/18 00:43:06;;;;;;;;;;;;;;;;;;349974;28;854;-79
2022/03/18 00:43:17;;;;;;;;;;;;;;;;;;349918;28;1006;-79
2022/03/18 00:43:27;;;;;;;;;;;;;;;;;;349964;28;964;-79
2022/03/18 00:43:37;;;;;;;;;;;;;;;;;;350018;28;925;-79
2022/03/18 00:43:49;;;;;;;;;;;;;;;;;;349954;28;1024;-79
2022/03/18 00:44:00;;;;;;;;;;;;;;;;;;349976;28;862;-79
2022/03/18 00:44:10;;;;;;;;;;;;;;;;;;350004;28;837;-79
2022/03/18 00:44:20;;;;;;;;;;;;;;;;;;349895;28;932;-79
2022/03/18 00:44:31;;;;;;;;;;;;;;;;;;349948;28;932;-79
2022/03/18 00:44:41;;;;;;;;;;;;;;;;;;349977;28;860;-79
2022/03/18 00:44:51;;;;;;;;;;;;;;;;;;349985;28;809;-79
2022/03/18 00:45:02;;;;;;;;;;;;;;;;;;349917;28;1063;-79
2022/03/18 00:45:13;;;;;;;;;;;;;;;;;;350050;28;968;-79
2022/03/18 00:45:24;;;;;;;;;;;;;;;;;;349917;28;824;-79
2022/03/18 00:45:34;;;;;;;;;;;;;;;;;;349902;28;925;-79
2022/03/18 00:45:45;;;;;;;;;;;;;;;;;;349942;28;828;-79
2022/03/18 00:45:55;;;;;;;;;;;;;;;;;;350003;28;815;-79
2022/03/18 00:46:06;;;;;;;;;;;;;;;;;;349812;28;2024;-79
2022/03/18 00:46:20;;;;;;;;;;;;;;;;;;349974;28;925;-79
2022/03/18 00:46:30;;;;;;;;;;;;;;;;;;350188;28;1670;-79
2022/03/18 00:46:41;;;;;;;;;;;;;;;;;;349976;28;1795;-79
2022/03/18 00:46:52;;;;;;;;;;;;;;;;;;349981;28;968;-79
2022/03/18 00:47:03;;;;;;;;;;;;;;;;;;350185;28;1799;-79
2022/03/18 00:52:06;;;;;;;;;;;;;;;;;;349936;28;941;-79
2022/03/18 00:52:16;;;;;;;;;;;;;;;;;;349925;28;940;-79
2022/03/18 00:52:26;;;;;;;;;;;;;;;;;;349959;28;858;-79
2022/03/18 00:52:37;;;;;;;;;;;;;;;;;;349743;28;1646;-79
2022/03/18 00:52:47;;;;;;;;;;;;;;;;;;349992;28;1011;-79
2022/03/18 00:52:57;;;;;;;;;;;;;;;;;;349948;28;1088;-79
2022/03/18 00:53:08;;;;;;;;;;;;;;;;;;349917;28;1019;-79
2022/03/18 00:53:18;;;;;;;;;;;;;;;;;;349958;28;995;-79
2022/03/18 00:53:29;;;;;;;;;;;;;;;;;;349969;28;956;-79
2022/03/18 00:53:39;;;;;;;;;;;;;;;;;;350015;28;857;-79
2022/03/18 00:53:51;;;;;;;;;;;;;;;;;;350001;28;905;-79
2022/03/18 00:54:01;;;;;;;;;;;;;;;;;;349943;28;857;-79
2022/03/18 00:54:11;;;;;;;;;;;;;;;;;;349998;28;937;-79
2022/03/18 00:54:21;;;;;;;;;;;;;;;;;;350012;28;964;-79
2022/03/18 00:54:32;;;;;;;;;;;;;;;;;;349945;28;924;-79
2022/03/18 00:54:43;;;;;;;;;;;;;;;;;;349905;28;1004;-79
2022/03/18 00:54:53;;;;;;;;;;;;;;;;;;349999;28;846;-79
2022/03/18 00:55:04;;;;;;;;;;;;;;;;;;350011;28;917;-79
2022/03/18 00:55:14;;;;;;;;;;;;;;;;;;349922;28;980;-79
2022/03/18 00:55:24;;;;;;;;;;;;;;;;;;349877;28;1762;-79
2022/03/18 00:55:34;;;;;;;;;;;;;;;;;;350424;28;1553;-79
2022/03/18 00:55:44;;;;;;;;;;;;;;;;;;349992;28;1910;-79
2022/03/18 00:55:55;;;;;;;;;;;;;;;;;;351364;28;995;-79
2022/03/18 00:56:05;;;;;;;;;;;;;;;;;;351353;28;886;-79
2022/03/18 00:56:15;;;;;;;;;;;;;;;;;;351387;28;841;-79
2022/03/18 00:56:26;;;;;;;;;;;;;;;;;;351375;28;857;-79
2022/03/18 00:56:36;;;;;;;;;;;;;;;;;;351109;28;1418;-79
2022/03/18 00:56:46;;;;;;;;;;;;;;;;;;350244;28;1323;-79
2022/03/18 00:56:56;;;;;;;;;;;;;;;;;;351337;28;789;-79
2022/03/18 00:57:07;;;;;;;;;;;;;;;;;;351349;28;984;-79
2022/03/18 00:57:17;;;;;;;;;;;;;;;;;;351193;28;1765;-79
2022/03/18 00:57:27;;;;;;;;;;;;;;;;;;350782;28;1590;-79
2022/03/18 00:57:37;;;;;;;;;;;;;;;;;;351361;28;838;-79
2022/03/18 00:57:47;;;;;;;;;;;;;;;;;;351407;28;937;-79
2022/03/18 00:57:58;;;;;;;;;;;;;;;;;;351431;28;770;-79
2022/03/18 00:58:08;;;;;;;;;;;;;;;;;;351167;28;1265;-79
2022/03/18 00:58:18;;;;;;;;;;;;;;;;;;351367;28;952;-79
2022/03/18 00:58:28;;;;;;;;;;;;;;;;;;351332;28;1039;-79
2022/03/18 00:58:39;;;;;;;;;;;;;;;;;;349929;28;1393;-79
2022/03/18 00:58:49;;;;;;;;;;;;;;;;;;349943;28;917;-79
2022/03/18 00:58:59;;;;;;;;;;;;;;;;;;349918;28;892;-79
2022/03/18 00:59:10;;;;;;;;;;;;;;;;;;349963;28;975;-78
2022/03/18 00:59:20;;;;;;;;;;;;;;;;;;350007;28;944;-78
2022/03/18 00:59:31;;;;;;;;;;;;;;;;;;349967;28;854;-78
2022/03/18 00:59:41;;;;;;;;;;;;;;;;;;349980;28;778;-79
2022/03/18 00:59:51;;;;;;;;;;;;;;;;;;349790;28;1675;-79
2022/03/18 01:00:01;;;;;;;;;;;;;;;;;;349983;28;805;-79
2022/03/18 01:00:12;;;;;;;;;;;;;;;;;;350000;28;766;-79
2022/03/18 01:00:22;;;;;;;;;;;;;;;;;;349941;28;845;-79
2022/03/18 01:00:33;;;;;;;;;;;;;;;;;;349969;28;870;-79
2022/03/18 01:00:43;;;;;;;;;;;;;;;;;;349874;28;976;-79
2022/03/18 01:00:53;;;;;;;;;;;;;;;;;;349938;28;909;-79
2022/03/18 01:01:04;;;;;;;;;;;;;;;;;;349942;28;1075;-79
2022/03/18 01:01:14;;;;;;;;;;;;;;;;;;349911;28;1028;-79
2022/03/18 01:01:26;;;;;;;;;;;;;;;;;;349966;28;933;-79
2022/03/18 01:01:37;;;;;;;;;;;;;;;;;;349897;28;949;-79
2022/03/18 01:01:52;;;;;;;;;;;;;;;;;;349937;28;1667;-79
2022/03/18 01:02:02;;;;;;;;;;;;;;;;;;349982;28;810;-79
2022/03/18 01:02:13;;;;;;;;;;;;;;;;;;351202;28;1565;-79
2022/03/18 01:02:23;;;;;;;;;;;;;;;;;;351338;28;996;-79
2022/03/18 01:02:33;;;;;;;;;;;;;;;;;;351349;28;921;-79
2022/03/18 01:02:43;;;;;;;;;;;;;;;;;;351317;28;965;-79
2022/03/18 01:02:54;;;;;;;;;;;;;;;;;;351374;28;979;-79
2022/03/18 01:03:05;;;;;;;;;;;;;;;;;;351292;28;906;-79
2022/03/18 01:03:16;;;;;;;;;;;;;;;;;;351364;28;880;-79
2022/03/18 01:03:26;;;;;;;;;;;;;;;;;;351310;28;960;-79
2022/03/18 01:03:36;;;;;;;;;;;;;;;;;;351361;28;799;-79
2022/03/18 01:03:46;;;;;;;;;;;;;;;;;;351364;28;913;-79
2022/03/18 01:03:57;;;;;;;;;;;;;;;;;;351382;28;848;-79
2022/03/18 01:04:07;;;;;;;;;;;;;;;;;;351364;28;1600;-79
2022/03/18 01:04:18;;;;;;;;;;;;;;;;;;350599;28;1638;-79
2022/03/18 01:04:28;;;;;;;;;;;;;;;;;;350354;28;1815;-79
2022/03/18 01:04:39;;;;;;;;;;;;;;;;;;351341;28;953;-79
2022/03/18 01:04:50;;;;;;;;;;;;;;;;;;351333;28;834;-79
2022/03/18 01:05:00;;;;;;;;;;;;;;;;;;351390;28;837;-79
2022/03/18 01:05:10;;;;;;;;;;;;;;;;;;351344;28;869;-79
2022/03/18 01:05:21;;;;;;;;;;;;;;;;;;351371;28;879;-80
2022/03/18 01:05:31;;;;;;;;;;;;;;;;;;351315;28;995;-79
2022/03/18 01:05:42;;;;;;;;;;;;;;;;;;351261;28;980;-80
2022/03/18 01:05:52;;;;;;;;;;;;;;;;;;351028;28;1658;-79
2022/03/18 01:06:03;;;;;;;;;;;;;;;;;;350105;28;1977;-79
2022/03/18 01:06:13;;;;;;;;;;;;;;;;;;351343;28;929;-79
2022/03/18 01:06:23;;;;;;;;;;;;;;;;;;351377;28;794;-79
2022/03/18 01:06:35;;;;;;;;;;;;;;;;;;351332;27;1011;-79
2022/03/18 01:06:45;;;;;;;;;;;;;;;;;;350464;28;1607;-79
2022/03/18 01:06:56;;;;;;;;;;;;;;;;;;351273;28;984;-79
2022/03/18 01:07:07;;;;;;;;;;;;;;;;;;351312;28;1031;-79
2022/03/18 01:07:17;;;;;;;;;;;;;;;;;;351347;28;1170;-79
2022/03/18 01:07:28;;;;;;;;;;;;;;;;;;351345;28;1171;-80
2022/03/18 01:07:39;;;;;;;;;;;;;;;;;;351264;28;996;-80
2022/03/18 01:07:49;;;;;;;;;;;;;;;;;;351429;28;853;-79
2022/03/18 01:07:59;;;;;;;;;;;;;;;;;;351316;28;1371;-79
2022/03/18 01:08:09;;;;;;;;;;;;;;;;;;351373;28;966;-79
2022/03/18 01:08:20;;;;;;;;;;;;;;;;;;351280;28;1036;-79
2022/03/18 01:08:30;;;;;;;;;;;;;;;;;;351391;28;794;-80
2022/03/18 01:08:41;;;;;;;;;;;;;;;;;;351390;28;924;-79
2022/03/18 01:08:51;;;;;;;;;;;;;;;;;;351250;28;983;-79
2022/03/18 01:09:02;;;;;;;;;;;;;;;;;;351323;28;1116;-79
2022/03/18 01:09:13;;;;;;;;;;;;;;;;;;351300;28;967;-79
2022/03/18 01:09:24;;;;;;;;;;;;;;;;;;351219;28;968;-79
2022/03/18 01:09:34;;;;;;;;;;;;;;;;;;351382;28;825;-79
2022/03/18 01:09:45;;;;;;;;;;;;;;;;;;351347;28;909;-79
2022/03/18 01:09:55;;;;;;;;;;;;;;;;;;350027;28;1631;-79
2022/03/18 01:10:07;;;;;;;;;;;;;;;;;;349956;28;910;-79
2022/03/18 01:10:17;;;;;;;;;;;;;;;;;;350003;28;853;-80
2022/03/18 01:10:27;;;;;;;;;;;;;;;;;;349907;28;1016;-80
2022/03/18 01:10:38;;;;;;;;;;;;;;;;;;349966;28;933;-80
2022/03/18 01:10:48;;;;;;;;;;;;;;;;;;349961;28;976;-79
2022/03/18 01:11:01;;;;;;;;;;;;;;;;;;349928;28;917;-79
2022/03/18 01:11:11;;;;;;;;;;;;;;;;;;349999;28;865;-80
2022/03/18 01:11:21;;;;;;;;;;;;;;;;;;349863;28;1038;-79
2022/03/18 01:11:32;;;;;;;;;;;;;;;;;;349933;28;980;-79
2022/03/18 01:11:42;;;;;;;;;;;;;;;;;;349955;28;834;-79
2022/03/18 01:11:53;;;;;;;;;;;;;;;;;;349869;28;1721;-79
2022/03/18 01:12:04;;;;;;;;;;;;;;;;;;349936;28;887;-79
2022/03/18 01:12:14;;;;;;;;;;;;;;;;;;349932;28;957;-79
2022/03/18 01:12:25;;;;;;;;;;;;;;;;;;349991;28;933;-79
2022/03/18 01:12:35;;;;;;;;;;;;;;;;;;349899;28;977;-79
2022/03/18 01:12:45;;;;;;;;;;;;;;;;;;349971;28;805;-79
2022/03/18 01:12:56;;;;;;;;;;;;;;;;;;349958;28;1099;-79
2022/03/18 01:13:06;;;;;;;;;;;;;;;;;;349946;28;789;-79
2022/03/18 01:13:16;;;;;;;;;;;;;;;;;;349891;28;1575;-79
2022/03/18 01:13:26;;;;;;;;;;;;;;;;;;349950;28;787;-79
2022/03/18 01:13:37;;;;;;;;;;;;;;;;;;349954;28;945;-80
2022/03/18 01:13:47;;;;;;;;;;;;;;;;;;349868;28;1009;-79
2022/03/18 01:13:57;;;;;;;;;;;;;;;;;;349916;28;1071;-80
2022/03/18 01:14:08;;;;;;;;;;;;;;;;;;349974;28;796;-80
2022/03/18 01:14:19;;;;;;;;;;;;;;;;;;349891;28;980;-79
2022/03/18 01:14:29;;;;;;;;;;;;;;;;;;349969;28;857;-79
2022/03/18 01:14:39;;;;;;;;;;;;;;;;;;349974;28;960;-79
2022/03/18 01:14:49;;;;;;;;;;;;;;;;;;349946;28;929;-80
2022/03/18 01:14:59;;;;;;;;;;;;;;;;;;349930;28;972;-79
2022/03/18 01:15:10;;;;;;;;;;;;;;;;;;350813;28;1324;-79
2022/03/18 01:15:20;;;;;;;;;;;;;;;;;;351369;28;945;-79
2022/03/18 01:15:30;;;;;;;;;;;;;;;;;;351267;28;1067;-79
2022/03/18 01:15:40;;;;;;;;;;;;;;;;;;351315;28;994;-79
2022/03/18 01:15:51;;;;;;;;;;;;;;;;;;351388;28;799;-80
2022/03/18 01:16:01;;;;;;;;;;;;;;;;;;351298;28;1104;-80
2022/03/18 01:16:11;;;;;;;;;;;;;;;;;;351316;28;897;-79
2022/03/18 01:16:21;;;;;;;;;;;;;;;;;;351329;28;1042;-79
2022/03/18 01:16:31;;;;;;;;;;;;;;;;;;351324;28;1292;-79
2022/03/18 01:16:42;;;;;;;;;;;;;;;;;;351392;28;865;-79
2022/03/18 01:16:52;;;;;;;;;;;;;;;;;;351019;28;1722;-79
2022/03/18 01:17:02;;;;;;;;;;;;;;;;;;349871;28;1815;-80
2022/03/18 01:17:13;;;;;;;;;;;;;;;;;;349926;28;952;-79
2022/03/18 01:17:23;;;;;;;;;;;;;;;;;;349949;28;976;-79
2022/03/18 01:17:33;;;;;;;;;;;;;;;;;;351264;28;1343;-79
2022/03/18 01:17:43;;;;;;;;;;;;;;;;;;352771;28;848;-79
2022/03/18 01:17:54;;;;;;;;;;;;;;;;;;352790;28;1004;-79
2022/03/18 01:18:04;;;;;;;;;;;;;;;;;;352797;28;955;-79
2022/03/18 01:18:14;;;;;;;;;;;;;;;;;;352805;28;924;-79
2022/03/18 01:18:24;;;;;;;;;;;;;;;;;;352740;28;1035;-79
2022/03/18 01:18:34;;;;;;;;;;;;;;;;;;352754;28;1028;-79
2022/03/18 01:18:45;;;;;;;;;;;;;;;;;;352724;28;1004;-79
2022/03/18 01:18:55;;;;;;;;;;;;;;;;;;352692;28;995;-79
2022/03/18 01:19:05;;;;;;;;;;;;;;;;;;352757;28;793;-79
2022/03/18 01:19:16;;;;;;;;;;;;;;;;;;352786;28;936;-80
2022/03/18 01:19:26;;;;;;;;;;;;;;;;;;350136;28;1725;-79
2022/03/18 01:19:36;;;;;;;;;;;;;;;;;;349971;28;995;-79
2022/03/18 01:19:46;;;;;;;;;;;;;;;;;;349827;28;1071;-79
2022/03/18 01:19:56;;;;;;;;;;;;;;;;;;349948;28;996;-79
2022/03/18 01:20:07;;;;;;;;;;;;;;;;;;349945;28;1000;-79
2022/03/18 01:20:17;;;;;;;;;;;;;;;;;;349920;28;785;-80
2022/03/18 01:20:28;;;;;;;;;;;;;;;;;;349968;28;964;-79